createdAt,value
2023-05-18T00:01:42.079Z,1.33
2023-05-18T00:04:10.141Z,1.08
2023-05-18T00:06:38.075Z,1.13
2023-05-18T00:09:05.686Z,0.80
2023-05-18T00:11:33.605Z,0.90
2023-05-18T00:14:00.830Z,1.05
2023-05-18T00:16:28.054Z,1.02
2023-05-18T00:18:56.574Z,0.93
2023-05-18T00:21:30.548Z,1.00
2023-05-18T00:23:58.551Z,1.10
2023-05-18T00:26:26.756Z,0.85
2023-05-18T00:28:54.506Z,0.88
2023-05-18T00:31:21.915Z,0.80
2023-05-18T00:33:49.172Z,1.15
2023-05-18T00:36:16.478Z,1.00
2023-05-18T00:38:43.800Z,1.00
2023-05-18T00:41:11.413Z,1.02
2023-05-18T00:43:42.996Z,0.82
2023-05-18T00:46:11.652Z,0.93
2023-05-18T00:48:39.302Z,1.00
2023-05-18T00:51:06.790Z,0.98
2023-05-18T00:53:34.180Z,0.88
2023-05-18T00:56:01.556Z,0.95
2023-05-18T00:58:29.270Z,0.80
2023-05-18T01:00:58.174Z,1.00
2023-05-18T01:03:26.411Z,1.02
2023-05-18T01:05:58.008Z,0.90
2023-05-18T01:08:27.336Z,0.68
2023-05-18T01:11:18.995Z,0.85
2023-05-18T01:14:20.334Z,0.80
2023-05-18T01:16:54.524Z,0.80
2023-05-18T01:19:58.206Z,1.10
2023-05-18T01:22:48.618Z,0.88
2023-05-18T01:25:51.732Z,0.57
2023-05-18T01:28:28.494Z,1.00
2023-05-18T01:30:56.769Z,0.65
2023-05-18T01:33:26.968Z,1.23
2023-05-18T01:35:54.289Z,1.00
2023-05-18T01:38:24.315Z,0.70
2023-05-18T01:41:11.311Z,1.08
2023-05-18T01:43:47.160Z,1.00
2023-05-18T01:46:32.642Z,0.93
2023-05-18T01:49:20.940Z,0.73
2023-05-18T01:51:50.876Z,1.00
2023-05-18T01:54:21.180Z,0.50
2023-05-18T01:56:50.898Z,0.80
2023-05-18T01:59:18.598Z,0.90
2023-05-18T02:01:46.308Z,0.90
2023-05-18T02:04:15.728Z,0.77
2023-05-18T02:06:43.061Z,0.80
2023-05-18T02:09:10.381Z,0.77
2023-05-18T02:11:37.792Z,0.77
2023-05-18T02:14:05.077Z,0.60
2023-05-18T02:16:32.516Z,0.93
2023-05-18T02:19:00.803Z,0.80
2023-05-18T02:21:28.381Z,0.80
2023-05-18T02:23:55.838Z,0.82
2023-05-18T02:26:23.116Z,0.90
2023-05-18T02:28:53.069Z,0.80
2023-05-18T02:31:20.546Z,0.70
2023-05-18T02:33:47.930Z,0.90
2023-05-18T02:36:15.358Z,0.70
2023-05-18T02:38:44.001Z,0.70
2023-05-18T02:41:12.336Z,0.88
2023-05-18T02:43:39.844Z,0.77
2023-05-18T02:46:08.630Z,0.80
2023-05-18T02:48:36.424Z,0.63
2023-05-18T02:51:03.779Z,0.55
2023-05-18T02:53:31.536Z,0.70
2023-05-18T02:56:04.979Z,0.50
2023-05-18T02:58:57.909Z,0.85
2023-05-18T03:01:37.725Z,0.50
2023-05-18T03:04:05.182Z,0.95
2023-05-18T03:06:33.180Z,0.88
2023-05-18T03:09:00.486Z,0.80
2023-05-18T03:11:36.103Z,0.75
2023-05-18T03:14:04.008Z,0.60
2023-05-18T03:16:31.309Z,0.70
2023-05-18T03:18:59.269Z,0.47
2023-05-18T03:21:36.063Z,0.70
2023-05-18T03:24:03.914Z,1.20
2023-05-18T03:26:33.137Z,0.70
2023-05-18T03:29:01.636Z,0.60
2023-05-18T03:31:29.428Z,0.73
2023-05-18T03:33:59.363Z,0.50
2023-05-18T03:36:28.267Z,0.60
2023-05-18T03:38:55.843Z,0.70
2023-05-18T03:41:23.614Z,0.55
2023-05-18T03:43:52.746Z,0.75
2023-05-18T03:46:20.140Z,1.00
2023-05-18T03:48:47.524Z,0.47
2023-05-18T03:51:19.995Z,0.70
2023-05-18T03:53:47.884Z,0.38
2023-05-18T03:56:15.233Z,0.70
2023-05-18T03:58:42.564Z,0.90
2023-05-18T04:01:10.755Z,0.90
2023-05-18T04:03:38.405Z,0.65
2023-05-18T04:06:06.527Z,0.77
2023-05-18T04:08:34.560Z,0.47
2023-05-18T04:11:02.169Z,0.52
2023-05-18T04:13:29.602Z,0.60
2023-05-18T04:16:01.113Z,0.60
2023-05-18T04:18:30.242Z,0.50
2023-05-18T04:20:57.937Z,0.60
2023-05-18T04:23:25.761Z,0.65
2023-05-18T04:25:53.316Z,0.50
2023-05-18T04:28:20.725Z,0.50
2023-05-18T04:30:48.131Z,0.50
2023-05-18T04:33:16.449Z,0.68
2023-05-18T04:35:45.488Z,0.65
2023-05-18T04:38:15.079Z,0.60
2023-05-18T04:40:43.533Z,0.85
2023-05-18T04:43:13.328Z,0.55
2023-05-18T04:45:40.895Z,0.70
2023-05-18T04:48:08.593Z,0.80
2023-05-18T04:50:37.241Z,0.88
2023-05-18T04:53:07.803Z,0.63
2023-05-18T04:55:35.560Z,0.80
2023-05-18T04:58:06.218Z,0.80
2023-05-18T05:00:33.679Z,0.57
2023-05-18T05:03:01.193Z,0.60
2023-05-18T05:05:29.975Z,0.68
2023-05-18T05:07:58.903Z,0.60
2023-05-18T05:10:28.164Z,0.57
2023-05-18T05:12:55.597Z,0.70
2023-05-18T05:15:22.908Z,0.60
2023-05-18T05:17:51.851Z,0.60
2023-05-18T05:20:19.513Z,0.90
2023-05-18T05:22:47.718Z,0.90
2023-05-18T05:25:17.994Z,0.80
2023-05-18T05:27:45.573Z,0.75
2023-05-18T05:30:13.787Z,0.82
2023-05-18T05:32:43.216Z,0.80
2023-05-18T05:35:11.435Z,0.80
2023-05-18T05:37:39.032Z,0.70
2023-05-18T05:40:09.729Z,0.60
2023-05-18T05:42:42.497Z,0.63
2023-05-18T05:45:10.350Z,0.60
2023-05-18T05:47:45.382Z,0.60
2023-05-18T05:50:14.056Z,0.90
2023-05-18T05:52:42.069Z,1.00
2023-05-18T05:55:10.161Z,0.90
2023-05-18T05:57:37.637Z,0.60
2023-05-18T06:00:06.437Z,1.13
2023-05-18T06:02:48.705Z,1.25
2023-05-18T06:05:20.753Z,0.70
2023-05-18T06:07:48.290Z,0.70
2023-05-18T06:10:15.772Z,0.63
2023-05-18T06:12:43.503Z,0.63
2023-05-18T06:15:11.540Z,0.88
2023-05-18T06:17:41.012Z,0.70
2023-05-18T06:20:09.015Z,1.00
2023-05-18T06:22:36.640Z,0.93
2023-05-18T06:25:24.451Z,0.73
2023-05-18T06:28:12.696Z,0.90
2023-05-18T06:31:03.364Z,1.20
2023-05-18T06:33:38.534Z,0.80
2023-05-18T06:36:06.196Z,1.10
2023-05-18T06:38:33.498Z,1.08
2023-05-18T06:41:00.941Z,1.08
2023-05-18T06:43:28.742Z,0.85
2023-05-18T06:46:24.827Z,0.85
2023-05-18T06:49:02.883Z,0.80
2023-05-18T06:51:31.361Z,0.93
2023-05-18T06:53:58.897Z,1.17
2023-05-18T06:56:26.779Z,0.73
2023-05-18T06:58:55.345Z,1.17
2023-05-18T07:01:22.765Z,1.35
2023-05-18T07:03:50.323Z,2.13
2023-05-18T07:06:17.930Z,2.03
2023-05-18T07:08:45.752Z,1.73
2023-05-18T07:11:13.117Z,1.15
2023-05-18T07:13:40.492Z,1.30
2023-05-18T07:16:07.864Z,1.50
2023-05-18T07:18:35.322Z,1.17
2023-05-18T07:21:02.756Z,1.60
2023-05-18T07:23:30.352Z,1.83
2023-05-18T07:25:57.821Z,2.17
2023-05-18T07:28:25.133Z,1.58
2023-05-18T07:30:52.489Z,2.00
2023-05-18T07:33:19.874Z,1.75
2023-05-18T07:35:47.287Z,1.58
2023-05-18T07:38:14.675Z,1.33
2023-05-18T07:40:42.005Z,1.50
2023-05-18T07:43:09.346Z,0.90
2023-05-18T07:45:36.704Z,1.35
2023-05-18T07:48:04.219Z,1.20
2023-05-18T07:50:31.756Z,1.02
2023-05-18T07:52:59.069Z,1.42
2023-05-18T07:55:26.687Z,1.00
2023-05-18T07:57:54.075Z,0.95
2023-05-18T08:00:21.523Z,0.90
2023-05-18T08:02:49.098Z,1.00
2023-05-18T08:05:16.642Z,0.88
2023-05-18T08:07:44.194Z,0.95
2023-05-18T08:10:11.715Z,0.90
2023-05-18T08:12:39.086Z,0.70
2023-05-18T08:15:07.186Z,1.10
2023-05-18T08:17:34.684Z,0.73
2023-05-18T08:20:04.897Z,0.90
2023-05-18T08:22:32.267Z,0.95
2023-05-18T08:25:00.985Z,0.90
2023-05-18T08:27:29.163Z,1.00
2023-05-18T08:29:56.518Z,0.77
2023-05-18T08:32:24.138Z,0.88
2023-05-18T08:34:51.832Z,0.73
2023-05-18T08:37:19.468Z,1.08
2023-05-18T08:39:46.849Z,1.00
2023-05-18T08:42:27.620Z,0.70
2023-05-18T08:45:04.689Z,0.90
2023-05-18T08:47:34.452Z,0.93
2023-05-18T08:50:03.037Z,0.90
2023-05-18T08:52:35.832Z,0.73
2023-05-18T08:55:08.510Z,0.90
2023-05-18T08:57:39.206Z,0.70
2023-05-18T09:00:10.092Z,0.70
2023-05-18T09:02:38.578Z,0.55
2023-05-18T09:05:07.516Z,0.65
2023-05-18T09:07:36.099Z,0.50
2023-05-18T09:10:03.502Z,0.65
2023-05-18T09:12:32.799Z,0.82
2023-05-18T09:15:01.268Z,0.52
2023-05-18T09:17:28.759Z,0.60
2023-05-18T09:19:56.233Z,0.52
2023-05-18T09:22:23.797Z,0.40
2023-05-18T09:24:51.220Z,0.50
2023-05-18T09:27:18.823Z,0.50
2023-05-18T09:29:57.773Z,0.70
2023-05-18T09:32:26.304Z,0.50
2023-05-18T09:34:54.177Z,0.60
2023-05-18T09:37:22.183Z,0.70
2023-05-18T09:40:08.472Z,0.75
2023-05-18T09:42:39.453Z,0.75
2023-05-18T09:45:26.923Z,0.45
2023-05-18T09:47:54.586Z,0.63
2023-05-18T09:50:23.186Z,0.73
2023-05-18T09:52:51.084Z,0.85
2023-05-18T09:55:19.994Z,0.73
2023-05-18T09:57:51.140Z,0.70
2023-05-18T10:00:21.148Z,0.50
2023-05-18T10:02:52.663Z,0.88
2023-05-18T10:05:20.984Z,0.85
2023-05-18T10:07:48.705Z,0.60
2023-05-18T10:10:23.384Z,0.80
2023-05-18T10:12:52.135Z,0.77
2023-05-18T10:15:21.806Z,0.65
2023-05-18T10:17:51.296Z,0.65
2023-05-18T10:20:20.202Z,0.98
2023-05-18T10:22:49.087Z,0.85
2023-05-18T10:25:21.830Z,0.77
2023-05-18T10:27:51.270Z,0.98
2023-05-18T10:30:19.835Z,0.70
2023-05-18T10:32:48.398Z,0.80
2023-05-18T10:35:16.994Z,0.60
2023-05-18T10:37:50.318Z,0.60
2023-05-18T10:40:18.317Z,0.85
2023-05-18T10:42:46.995Z,0.70
2023-05-18T10:45:15.680Z,0.90
2023-05-18T10:47:44.618Z,0.68
2023-05-18T10:50:13.436Z,0.60
2023-05-18T10:52:41.742Z,0.60
2023-05-18T10:55:09.467Z,0.57
2023-05-18T10:57:45.676Z,0.43
2023-05-18T11:00:13.518Z,0.75
2023-05-18T11:02:43.149Z,0.60
2023-05-18T11:05:11.893Z,0.68
2023-05-18T11:07:39.333Z,0.77
2023-05-18T11:10:11.444Z,0.70
2023-05-18T11:12:41.099Z,0.70
2023-05-18T11:15:09.145Z,0.85
2023-05-18T11:17:36.737Z,0.70
2023-05-18T11:20:06.657Z,0.70
2023-05-18T11:22:58.255Z,0.95
2023-05-18T11:25:28.555Z,0.65
2023-05-18T11:28:02.385Z,0.50
2023-05-18T11:30:30.416Z,0.70
2023-05-18T11:33:10.592Z,0.70
2023-05-18T11:36:12.124Z,0.68
2023-05-18T11:38:50.211Z,0.60
2023-05-18T11:41:41.798Z,0.80
2023-05-18T11:44:12.061Z,0.70
2023-05-18T11:46:58.721Z,0.50
2023-05-18T11:49:47.224Z,0.82
2023-05-18T11:52:19.185Z,0.77
2023-05-18T11:54:49.306Z,0.47
2023-05-18T11:57:18.734Z,0.40
2023-05-18T11:59:48.387Z,0.57
2023-05-18T12:02:20.979Z,0.60
2023-05-18T12:04:51.098Z,0.68
2023-05-18T12:07:19.758Z,0.80
2023-05-18T12:09:48.075Z,0.50
2023-05-18T12:12:20.180Z,0.63
2023-05-18T12:14:56.095Z,0.80
2023-05-18T12:17:24.527Z,0.60
2023-05-18T12:19:51.905Z,0.43
2023-05-18T12:22:19.464Z,0.65
2023-05-18T12:24:46.828Z,0.40
2023-05-18T12:27:14.263Z,0.68
2023-05-18T12:29:42.297Z,0.52
2023-05-18T12:32:11.063Z,0.60
2023-05-18T12:34:39.626Z,0.60
2023-05-18T12:37:08.003Z,0.57
2023-05-18T12:39:36.932Z,0.60
2023-05-18T12:42:17.678Z,0.70
2023-05-18T12:44:50.302Z,0.60
2023-05-18T12:47:17.883Z,0.68
2023-05-18T12:49:49.497Z,0.55
2023-05-18T12:52:17.116Z,0.50
2023-05-18T12:55:00.994Z,0.60
2023-05-18T12:57:30.929Z,0.50
2023-05-18T12:59:58.543Z,0.65
2023-05-18T13:02:31.667Z,0.75
2023-05-18T13:05:07.549Z,1.00
2023-05-18T13:07:41.048Z,0.55
2023-05-18T13:10:13.434Z,0.43
2023-05-18T13:12:48.932Z,0.60
2023-05-18T13:15:23.218Z,0.65
2023-05-18T13:18:00.426Z,0.47
2023-05-18T13:20:48.308Z,0.47
2023-05-18T13:23:17.877Z,0.50
2023-05-18T13:25:48.609Z,1.02
2023-05-18T13:28:17.685Z,0.60
2023-05-18T13:30:47.307Z,0.40
2023-05-18T13:33:17.186Z,0.50
2023-05-18T13:35:45.466Z,0.47
2023-05-18T13:38:14.159Z,0.50
2023-05-18T13:40:42.727Z,0.80
2023-05-18T13:43:12.037Z,0.60
2023-05-18T13:45:41.894Z,0.60
2023-05-18T13:48:10.822Z,0.73
2023-05-18T13:50:40.104Z,0.80
2023-05-18T13:53:07.503Z,0.65
2023-05-18T13:55:35.744Z,0.68
2023-05-18T13:58:03.103Z,0.63
2023-05-18T14:00:33.566Z,0.50
2023-05-18T14:03:01.517Z,0.60
2023-05-18T14:05:29.079Z,0.90
2023-05-18T14:07:56.836Z,0.70
2023-05-18T14:10:24.340Z,0.95
2023-05-18T14:12:51.646Z,0.60
2023-05-18T14:15:18.937Z,0.57
2023-05-18T14:17:46.475Z,0.55
2023-05-18T14:20:14.044Z,0.50
2023-05-18T14:22:41.472Z,0.65
2023-05-18T14:25:08.904Z,0.70
2023-05-18T14:27:36.191Z,0.47
2023-05-18T14:30:03.960Z,0.90
2023-05-18T14:32:31.387Z,0.60
2023-05-18T14:34:58.809Z,0.50
2023-05-18T14:37:26.323Z,0.60
2023-05-18T14:39:53.714Z,0.70
2023-05-18T14:42:21.104Z,0.60
2023-05-18T14:44:48.474Z,0.73
2023-05-18T14:47:15.848Z,0.47
2023-05-18T14:49:43.109Z,0.80
2023-05-18T14:52:11.292Z,0.70
2023-05-18T14:54:38.678Z,0.60
2023-05-18T14:57:06.099Z,0.63
2023-05-18T14:59:33.424Z,0.70
2023-05-18T15:02:00.869Z,0.57
2023-05-18T15:04:28.249Z,0.40
2023-05-18T15:06:55.595Z,0.55
2023-05-18T15:09:25.259Z,0.47
2023-05-18T15:11:54.069Z,0.63
2023-05-18T15:14:21.381Z,0.50
2023-05-18T15:16:49.067Z,0.52
2023-05-18T15:19:16.473Z,0.50
2023-05-18T15:21:44.959Z,0.73
2023-05-18T15:24:12.563Z,0.50
2023-05-18T15:26:40.024Z,0.80
2023-05-18T15:29:07.580Z,0.60
2023-05-18T15:31:36.965Z,0.65
2023-05-18T15:34:04.366Z,0.65
2023-05-18T15:36:32.373Z,0.50
2023-05-18T15:39:00.340Z,0.60
2023-05-18T15:41:33.013Z,0.30
2023-05-18T15:44:01.810Z,0.52
2023-05-18T15:46:32.204Z,0.60
2023-05-18T15:48:59.599Z,0.50
2023-05-18T15:51:26.882Z,0.80
2023-05-18T15:53:54.319Z,0.60
2023-05-18T15:56:22.051Z,0.82
2023-05-18T15:58:49.558Z,0.65
2023-05-18T16:01:17.009Z,0.70
2023-05-18T16:03:44.603Z,1.08
2023-05-18T16:06:11.963Z,0.50
2023-05-18T16:08:39.276Z,0.73
2023-05-18T16:11:07.222Z,0.65
2023-05-18T16:13:34.515Z,0.75
2023-05-18T16:16:03.432Z,0.60
2023-05-18T16:18:30.888Z,0.40
2023-05-18T16:20:58.870Z,0.75
2023-05-18T16:23:26.195Z,0.60
2023-05-18T16:25:53.597Z,0.88
2023-05-18T16:28:20.977Z,0.68
2023-05-18T16:30:48.272Z,0.50
2023-05-18T16:33:16.946Z,0.63
2023-05-18T16:35:44.360Z,0.43
2023-05-18T16:38:13.245Z,0.90
2023-05-18T16:40:41.046Z,0.80
2023-05-18T16:43:08.951Z,0.68
2023-05-18T16:45:36.255Z,1.65
2023-05-18T16:48:03.930Z,0.77
2023-05-18T16:50:31.749Z,0.98
2023-05-18T16:52:59.243Z,1.13
2023-05-18T16:55:26.716Z,0.88
2023-05-18T16:57:54.070Z,0.80
2023-05-18T17:00:21.753Z,0.90
2023-05-18T17:02:49.259Z,0.65
2023-05-18T17:05:17.270Z,0.90
2023-05-18T17:07:46.366Z,0.88
2023-05-18T17:10:13.693Z,0.90
2023-05-18T17:12:41.133Z,0.90
2023-05-18T17:15:12.630Z,0.80
2023-05-18T17:17:42.094Z,0.85
2023-05-18T17:20:11.160Z,1.10
2023-05-18T17:22:38.797Z,0.80
2023-05-18T17:25:06.792Z,0.98
2023-05-18T17:27:34.223Z,0.80
2023-05-18T17:30:01.525Z,1.30
2023-05-18T17:32:28.845Z,0.98
2023-05-18T17:34:56.308Z,0.82
2023-05-18T17:37:23.722Z,1.00
2023-05-18T17:39:52.283Z,0.98
2023-05-18T17:42:19.653Z,1.10
2023-05-18T17:44:47.520Z,0.85
2023-05-18T17:47:15.159Z,0.80
2023-05-18T17:49:43.798Z,0.60
2023-05-18T17:52:11.568Z,0.80
2023-05-18T17:54:38.821Z,0.82
2023-05-18T17:57:06.223Z,0.77
2023-05-18T17:59:35.538Z,0.85
2023-05-18T18:02:04.635Z,0.82
2023-05-18T18:04:32.183Z,0.65
2023-05-18T18:07:01.833Z,0.88
2023-05-18T18:09:29.206Z,0.70
2023-05-18T18:11:58.059Z,0.70
2023-05-18T18:14:25.476Z,0.73
2023-05-18T18:16:53.000Z,1.10
2023-05-18T18:19:20.402Z,0.75
2023-05-18T18:21:47.728Z,0.70
2023-05-18T18:24:15.141Z,0.70
2023-05-18T18:26:42.652Z,1.17
2023-05-18T18:29:09.941Z,0.88
2023-05-18T18:31:37.377Z,0.82
2023-05-18T18:34:05.225Z,0.73
2023-05-18T18:36:32.629Z,0.85
2023-05-18T18:39:00.066Z,0.93
2023-05-18T18:41:27.513Z,0.82
2023-05-18T18:43:57.154Z,1.15
2023-05-18T18:46:24.823Z,0.93
2023-05-18T18:48:52.461Z,0.88
2023-05-18T18:51:19.779Z,0.75
2023-05-18T18:53:47.147Z,1.02
2023-05-18T18:56:14.543Z,1.00
2023-05-18T18:58:41.844Z,1.00
2023-05-18T19:01:09.239Z,0.88
2023-05-18T19:03:36.815Z,0.80
2023-05-18T19:06:04.491Z,1.00
2023-05-18T19:08:31.777Z,0.70
2023-05-18T19:10:59.960Z,1.10
2023-05-18T19:13:27.310Z,1.10
2023-05-18T19:15:54.675Z,0.70
2023-05-18T19:18:22.058Z,0.80
2023-05-18T19:20:49.523Z,0.95
2023-05-18T19:23:17.014Z,0.90
2023-05-18T19:25:44.371Z,0.82
2023-05-18T19:28:11.775Z,1.08
2023-05-18T19:30:39.134Z,1.10
2023-05-18T19:33:06.696Z,1.20
2023-05-18T19:35:34.560Z,1.15
2023-05-18T19:38:02.428Z,1.00
2023-05-18T19:40:29.939Z,1.00
2023-05-18T19:42:59.675Z,0.98
2023-05-18T19:45:27.289Z,1.33
2023-05-18T19:47:54.842Z,0.80
2023-05-18T19:50:22.261Z,1.30
2023-05-18T19:52:50.097Z,1.15
2023-05-18T19:55:17.668Z,1.65
2023-05-18T19:57:44.995Z,0.90
2023-05-18T20:00:12.518Z,1.10
2023-05-18T20:02:40.246Z,0.88
2023-05-18T20:05:09.430Z,1.00
2023-05-18T20:07:37.331Z,1.10
2023-05-18T20:10:05.103Z,1.08
2023-05-18T20:12:32.792Z,1.35
2023-05-18T20:15:00.138Z,0.90
2023-05-18T20:17:28.061Z,1.00
2023-05-18T20:19:55.852Z,1.10
2023-05-18T20:22:24.116Z,0.93
2023-05-18T20:24:51.611Z,0.95
2023-05-18T20:27:19.049Z,1.10
2023-05-18T20:29:46.771Z,0.98
2023-05-18T20:32:14.148Z,0.70
2023-05-18T20:34:44.391Z,1.10
2023-05-18T20:37:13.878Z,1.20
2023-05-18T20:39:50.699Z,0.75
2023-05-18T20:42:22.361Z,0.93
2023-05-18T20:44:53.090Z,1.40
2023-05-18T20:47:21.886Z,1.15
2023-05-18T20:49:49.431Z,1.20
2023-05-18T20:52:16.931Z,1.15
2023-05-18T20:54:44.388Z,1.20
2023-05-18T20:57:12.142Z,0.85
2023-05-18T20:59:43.595Z,1.20
2023-05-18T21:02:11.503Z,0.93
2023-05-18T21:04:38.890Z,1.10
2023-05-18T21:07:06.264Z,1.30
2023-05-18T21:09:34.520Z,1.50
2023-05-18T21:12:02.696Z,1.30
2023-05-18T21:14:30.092Z,1.20
2023-05-18T21:16:57.895Z,1.30
2023-05-18T21:19:26.060Z,1.20
2023-05-18T21:21:53.788Z,1.50
2023-05-18T21:24:21.087Z,1.33
2023-05-18T21:26:48.630Z,1.40
2023-05-18T21:29:16.432Z,1.38
2023-05-18T21:31:44.423Z,1.30
2023-05-18T21:34:11.810Z,1.13
2023-05-18T21:36:39.344Z,1.58
2023-05-18T21:39:09.149Z,1.45
2023-05-18T21:41:39.246Z,1.70
2023-05-18T21:44:07.104Z,1.33
2023-05-18T21:46:36.545Z,1.23
2023-05-18T21:49:06.321Z,1.30
2023-05-18T21:51:33.898Z,1.40
2023-05-18T21:54:01.691Z,1.80
2023-05-18T21:56:29.126Z,1.23
2023-05-18T21:58:56.783Z,1.42
2023-05-18T22:01:24.311Z,1.55
2023-05-18T22:03:51.693Z,1.50
2023-05-18T22:06:19.363Z,1.85
2023-05-18T22:08:47.365Z,1.40
2023-05-18T22:11:14.963Z,1.48
2023-05-18T22:13:42.404Z,1.60
2023-05-18T22:16:09.761Z,1.23
2023-05-18T22:18:37.022Z,1.50
2023-05-18T22:21:04.465Z,1.42
2023-05-18T22:23:31.830Z,1.30
2023-05-18T22:25:59.214Z,1.52
2023-05-18T22:28:26.456Z,1.63
2023-05-18T22:30:53.780Z,1.73
2023-05-18T22:33:21.390Z,1.35
2023-05-18T22:35:48.818Z,1.40
2023-05-18T22:38:17.003Z,1.70
2023-05-18T22:40:45.449Z,1.48
2023-05-18T22:43:12.960Z,2.33
2023-05-18T22:45:40.443Z,1.70
2023-05-18T22:48:07.856Z,1.65
2023-05-18T22:50:35.421Z,1.80
2023-05-18T22:53:02.975Z,1.67
2023-05-18T22:55:31.193Z,1.60
2023-05-18T22:57:58.487Z,1.55
2023-05-18T23:00:27.254Z,1.40
2023-05-18T23:02:54.681Z,1.83
2023-05-18T23:05:22.194Z,1.48
2023-05-18T23:07:50.224Z,1.60
2023-05-18T23:10:18.614Z,1.60
2023-05-18T23:12:46.274Z,1.73
2023-05-18T23:15:13.961Z,1.60
2023-05-18T23:17:42.359Z,1.50
2023-05-18T23:20:11.374Z,1.70
2023-05-18T23:22:38.847Z,1.77
2023-05-18T23:25:08.727Z,1.50
2023-05-18T23:27:36.152Z,1.52
2023-05-18T23:30:03.782Z,1.85
2023-05-18T23:32:31.581Z,1.55
2023-05-18T23:34:59.659Z,1.52
2023-05-18T23:37:27.756Z,2.05
2023-05-18T23:39:56.702Z,2.00
2023-05-18T23:42:24.775Z,1.38
2023-05-18T23:44:52.459Z,1.63
2023-05-18T23:47:20.236Z,1.60
2023-05-18T23:49:47.924Z,1.52
2023-05-18T23:52:16.329Z,1.95
2023-05-18T23:54:45.765Z,1.60
2023-05-18T23:57:13.705Z,1.60
2023-05-18T23:59:42.111Z,1.63
